createdAt,value
2018-05-21T00:00:21.721Z,14.60
2018-05-21T00:02:24.923Z,14.60
2018-05-21T00:04:27.406Z,14.60
2018-05-21T00:06:29.818Z,14.60
2018-05-21T00:08:32.358Z,14.50
2018-05-21T00:10:34.815Z,14.50
2018-05-21T00:12:37.229Z,14.50
2018-05-21T00:14:39.678Z,14.50
2018-05-21T00:16:42.201Z,14.50
2018-05-21T00:18:44.568Z,14.50
2018-05-21T00:20:47.775Z,14.40
2018-05-21T00:22:50.265Z,14.40
2018-05-21T00:24:52.737Z,14.40
2018-05-21T00:26:55.172Z,14.40
2018-05-21T00:28:58.365Z,14.40
2018-05-21T00:31:00.825Z,14.30
2018-05-21T00:33:04.425Z,14.30
2018-05-21T00:35:07.649Z,14.30
2018-05-21T00:37:10.082Z,14.30
2018-05-21T00:39:13.269Z,14.30
2018-05-21T00:41:16.492Z,14.20
2018-05-21T00:43:18.908Z,14.20
2018-05-21T00:45:22.112Z,14.20
2018-05-21T00:47:25.332Z,14.20
2018-05-21T00:49:27.770Z,14.10
2018-05-21T00:51:30.949Z,14.10
2018-05-21T00:53:34.148Z,14.10
2018-05-21T00:55:37.373Z,14.10
2018-05-21T00:57:39.804Z,14.00
2018-05-21T00:59:43.008Z,14.00
2018-05-21T01:01:45.493Z,14.00
2018-05-21T01:03:47.905Z,14.00
2018-05-21T01:05:50.432Z,14.00
2018-05-21T01:07:52.857Z,14.00
2018-05-21T01:09:56.092Z,14.00
2018-05-21T01:11:58.517Z,13.90
2018-05-21T01:14:01.753Z,13.90
2018-05-21T01:16:04.218Z,13.90
2018-05-21T01:18:06.665Z,13.90
2018-05-21T01:20:09.112Z,13.90
2018-05-21T01:22:12.349Z,13.90
2018-05-21T01:24:14.818Z,13.90
2018-05-21T01:26:17.289Z,13.90
2018-05-21T01:28:19.713Z,13.90
2018-05-21T01:30:22.940Z,13.90
2018-05-21T01:32:25.364Z,13.90
2018-05-21T01:34:27.800Z,14.00
2018-05-21T01:36:30.232Z,14.00
2018-05-21T01:38:32.664Z,14.00
2018-05-21T01:40:35.188Z,13.90
2018-05-21T01:42:37.648Z,13.90
2018-05-21T01:44:40.083Z,13.90
2018-05-21T01:46:42.532Z,13.90
2018-05-21T01:48:44.977Z,13.90
2018-05-21T01:50:47.396Z,13.90
2018-05-21T01:52:50.662Z,13.90
2018-05-21T01:54:53.780Z,13.90
2018-05-21T01:56:57.000Z,13.90
2018-05-21T01:58:59.472Z,13.90
2018-05-21T02:01:01.913Z,13.90
2018-05-21T02:03:04.910Z,13.90
2018-05-21T02:05:07.414Z,13.90
2018-05-21T02:07:09.846Z,13.90
2018-05-21T02:09:12.334Z,13.90
2018-05-21T02:11:14.810Z,13.80
2018-05-21T02:13:17.281Z,13.80
2018-05-21T02:15:19.713Z,13.80
2018-05-21T02:17:22.900Z,13.70
2018-05-21T02:19:26.104Z,13.70
2018-05-21T02:21:28.537Z,13.70
2018-05-21T02:23:31.061Z,13.70
2018-05-21T02:25:33.532Z,13.70
2018-05-21T02:27:35.961Z,13.70
2018-05-21T02:29:39.147Z,13.60
2018-05-21T02:31:42.362Z,13.60
2018-05-21T02:33:44.780Z,13.60
2018-05-21T02:35:47.216Z,13.60
2018-05-21T02:37:49.640Z,13.50
2018-05-21T02:39:52.833Z,13.50
2018-05-21T02:41:56.080Z,13.50
2018-05-21T02:43:58.512Z,13.50
2018-05-21T02:46:00.952Z,13.50
2018-05-21T02:48:03.388Z,13.40
2018-05-21T02:50:05.827Z,13.40
2018-05-21T02:52:08.306Z,13.40
2018-05-21T02:54:10.785Z,13.40
2018-05-21T02:56:13.218Z,13.40
2018-05-21T02:58:16.404Z,13.40
2018-05-21T03:00:18.832Z,13.40
2018-05-21T03:02:21.259Z,13.40
2018-05-21T03:04:23.744Z,13.40
2018-05-21T03:06:26.219Z,13.40
2018-05-21T03:08:28.641Z,13.30
2018-05-21T03:10:31.853Z,13.30
2018-05-21T03:12:34.301Z,13.30
2018-05-21T03:14:37.499Z,13.30
2018-05-21T03:16:40.692Z,13.30
2018-05-21T03:18:43.129Z,13.20
2018-05-21T03:20:45.652Z,13.30
2018-05-21T03:22:48.110Z,13.30
2018-05-21T03:24:51.276Z,13.20
2018-05-21T03:26:54.487Z,13.30
2018-05-21T03:28:56.908Z,13.20
2018-05-21T03:30:59.340Z,13.30
2018-05-21T03:33:01.789Z,13.20
2018-05-21T03:35:04.213Z,13.20
2018-05-21T03:37:06.745Z,13.30
2018-05-21T03:39:09.199Z,13.30
2018-05-21T03:41:11.689Z,13.30
2018-05-21T03:43:14.122Z,13.30
2018-05-21T03:45:17.356Z,13.30
2018-05-21T03:47:19.798Z,13.30
2018-05-21T03:49:22.983Z,13.40
2018-05-21T03:51:25.433Z,13.40
2018-05-21T03:53:28.641Z,13.40
2018-05-21T03:55:31.823Z,13.50
2018-05-21T03:57:35.029Z,13.50
2018-05-21T03:59:49.213Z,13.50
2018-05-21T04:02:03.632Z,13.60
2018-05-21T04:04:06.064Z,13.60
2018-05-21T04:06:09.248Z,13.70
2018-05-21T04:08:13.048Z,13.70
2018-05-21T04:10:16.244Z,13.70
2018-05-21T04:12:19.487Z,13.80
2018-05-21T04:14:21.939Z,13.80
2018-05-21T04:16:24.398Z,13.90
2018-05-21T04:18:26.830Z,13.90
2018-05-21T04:20:30.224Z,14.00
2018-05-21T04:22:33.456Z,14.00
2018-05-21T04:24:35.903Z,14.00
2018-05-21T04:26:38.345Z,14.10
2018-05-21T04:28:41.577Z,14.30
2018-05-21T04:30:44.057Z,14.20
2018-05-21T04:32:46.497Z,14.30
2018-05-21T04:34:48.940Z,14.40
2018-05-21T04:36:51.369Z,14.40
2018-05-21T04:38:53.798Z,14.50
2018-05-21T04:40:56.997Z,14.60
2018-05-21T04:42:59.432Z,14.60
2018-05-21T04:45:01.865Z,14.70
2018-05-21T04:47:04.324Z,14.70
2018-05-21T04:49:06.792Z,14.80
2018-05-21T04:51:09.228Z,14.90
2018-05-21T04:53:12.478Z,15.50
2018-05-21T04:55:14.928Z,15.40
2018-05-21T04:57:17.369Z,16.20
2018-05-21T04:59:19.782Z,17.00
2018-05-21T05:01:22.229Z,17.70
2018-05-21T05:03:24.705Z,18.40
2018-05-21T05:05:27.124Z,19.10
2018-05-21T05:07:30.325Z,20.30
2018-05-21T05:09:33.544Z,20.80
2018-05-21T05:11:35.969Z,20.70
2018-05-21T05:13:39.177Z,21.70
2018-05-21T05:15:41.607Z,21.60
2018-05-21T05:17:44.808Z,22.30
2018-05-21T05:19:47.334Z,22.20
2018-05-21T05:21:49.763Z,22.70
2018-05-21T05:23:53.825Z,23.30
2018-05-21T05:25:56.273Z,23.30
2018-05-21T05:27:58.745Z,23.60
2018-05-21T05:30:01.227Z,23.90
2018-05-21T05:32:03.689Z,24.20
2018-05-21T05:34:06.155Z,24.40
2018-05-21T05:36:08.651Z,24.70
2018-05-21T05:38:11.122Z,24.80
2018-05-21T05:40:13.549Z,24.90
2018-05-21T05:42:15.981Z,25.20
2018-05-21T05:44:18.412Z,25.30
2018-05-21T05:46:20.845Z,25.50
2018-05-21T05:48:24.061Z,25.80
2018-05-21T05:50:26.561Z,25.80
2018-05-21T05:52:29.106Z,26.10
2018-05-21T05:54:31.568Z,26.20
2018-05-21T05:56:33.997Z,26.40
2018-05-21T05:58:36.450Z,26.50
2018-05-21T06:00:38.880Z,26.70
2018-05-21T06:02:41.321Z,26.70
2018-05-21T06:04:44.513Z,26.90
2018-05-21T06:06:47.706Z,27.10
2018-05-21T06:08:50.152Z,27.10
2018-05-21T06:10:53.386Z,27.40
2018-05-21T06:12:55.824Z,27.30
2018-05-21T06:14:59.008Z,27.80
2018-05-21T06:17:02.233Z,27.80
2018-05-21T06:19:04.669Z,27.80
2018-05-21T06:21:07.865Z,27.80
2018-05-21T06:23:10.291Z,27.80
2018-05-21T06:25:12.825Z,27.50
2018-05-21T06:27:15.817Z,27.80
2018-05-21T06:29:18.249Z,27.80
2018-05-21T06:31:21.436Z,28.10
2018-05-21T06:33:23.938Z,28.00
2018-05-21T06:35:26.360Z,27.80
2018-05-21T06:37:29.592Z,27.80
2018-05-21T06:39:32.019Z,27.80
2018-05-21T06:41:35.249Z,28.30
2018-05-21T06:43:38.014Z,28.40
2018-05-21T06:45:40.508Z,28.50
2018-05-21T06:47:42.947Z,28.60
2018-05-21T06:49:46.312Z,28.70
2018-05-21T06:51:48.844Z,28.70
2018-05-21T06:53:51.307Z,28.30
2018-05-21T06:55:53.741Z,27.60
2018-05-21T06:57:56.957Z,26.40
2018-05-21T06:59:59.413Z,26.40
2018-05-21T07:02:01.931Z,25.90
2018-05-21T07:04:04.365Z,25.40
2018-05-21T07:06:06.787Z,24.80
2018-05-21T07:08:09.221Z,24.30
2018-05-21T07:10:11.648Z,24.00
2018-05-21T07:12:14.832Z,23.50
2018-05-21T07:14:18.046Z,23.30
2018-05-21T07:16:20.468Z,23.30
2018-05-21T07:18:22.906Z,23.10
2018-05-21T07:20:25.329Z,22.90
2018-05-21T07:22:28.600Z,22.80
2018-05-21T07:24:31.684Z,22.80
2018-05-21T07:26:34.905Z,22.80
2018-05-21T07:28:37.482Z,22.80
2018-05-21T07:30:40.672Z,22.80
2018-05-21T07:32:43.161Z,22.80
2018-05-21T07:34:45.621Z,23.00
2018-05-21T07:36:48.092Z,23.00
2018-05-21T07:38:50.606Z,23.00
2018-05-21T07:40:53.033Z,23.00
2018-05-21T07:42:55.509Z,23.00
2018-05-21T07:44:57.957Z,23.00
2018-05-21T07:47:01.138Z,23.00
2018-05-21T07:49:03.577Z,23.00
2018-05-21T07:51:06.000Z,23.00
2018-05-21T07:53:08.425Z,23.00
2018-05-21T07:55:11.656Z,23.00
2018-05-21T07:57:14.132Z,22.90
2018-05-21T07:59:16.574Z,22.90
2018-05-21T08:01:18.997Z,22.90
2018-05-21T08:03:21.436Z,22.90
2018-05-21T08:05:23.932Z,23.00
2018-05-21T08:07:26.330Z,23.10
2018-05-21T08:09:29.524Z,23.30
2018-05-21T08:11:32.720Z,23.30
2018-05-21T08:13:36.040Z,23.30
2018-05-21T08:15:38.488Z,23.30
2018-05-21T08:17:41.664Z,23.30
2018-05-21T08:19:44.865Z,23.30
2018-05-21T08:21:47.340Z,23.30
2018-05-21T08:23:49.821Z,23.40
2018-05-21T08:25:52.296Z,23.50
2018-05-21T08:27:54.770Z,23.40
2018-05-21T08:29:57.205Z,23.40
2018-05-21T08:32:00.397Z,23.50
2018-05-21T08:34:03.598Z,23.40
2018-05-21T08:36:06.020Z,23.40
2018-05-21T08:38:08.448Z,23.50
2018-05-21T08:40:10.929Z,23.50
2018-05-21T08:42:13.384Z,23.60
2018-05-21T08:44:15.841Z,23.70
2018-05-21T08:46:19.049Z,23.90
2018-05-21T08:48:21.573Z,23.80
2018-05-21T08:50:23.988Z,24.00
2018-05-21T08:52:26.467Z,24.00
2018-05-21T08:54:28.916Z,24.00
2018-05-21T08:56:31.371Z,24.00
2018-05-21T08:58:34.566Z,24.00
2018-05-21T09:00:37.009Z,24.00
2018-05-21T09:02:40.206Z,24.00
2018-05-21T09:04:43.415Z,24.00
2018-05-21T09:06:45.901Z,24.00
2018-05-21T09:08:48.377Z,24.00
2018-05-21T09:10:50.796Z,24.10
2018-05-21T09:12:53.997Z,24.30
2018-05-21T09:14:56.494Z,24.20
2018-05-21T09:16:58.918Z,24.30
2018-05-21T09:19:02.148Z,24.40
2018-05-21T09:21:04.621Z,24.40
2018-05-21T09:23:07.044Z,24.40
2018-05-21T09:25:10.286Z,24.50
2018-05-21T09:27:12.713Z,24.50
2018-05-21T09:29:15.946Z,24.40
2018-05-21T09:31:18.402Z,24.40
2018-05-21T09:33:20.881Z,24.30
2018-05-21T09:35:23.318Z,24.30
2018-05-21T09:37:26.546Z,24.50
2018-05-21T09:39:29.033Z,24.40
2018-05-21T09:41:31.460Z,24.60
2018-05-21T09:43:33.890Z,24.60
2018-05-21T09:45:36.337Z,24.30
2018-05-21T09:47:38.756Z,24.40
2018-05-21T09:49:41.969Z,24.50
2018-05-21T09:51:44.445Z,24.50
2018-05-21T09:53:46.865Z,24.70
2018-05-21T09:55:50.178Z,24.80
2018-05-21T09:57:53.365Z,24.90
2018-05-21T09:59:55.792Z,24.80
2018-05-21T10:01:58.225Z,24.80
2018-05-21T10:04:00.656Z,24.80
2018-05-21T10:06:03.857Z,25.10
2018-05-21T10:08:06.291Z,25.10
2018-05-21T10:10:08.825Z,25.10
2018-05-21T10:12:11.325Z,25.10
2018-05-21T10:14:14.451Z,25.20
2018-05-21T10:16:17.667Z,25.20
2018-05-21T10:18:20.136Z,25.20
2018-05-21T10:20:22.612Z,25.20
2018-05-21T10:22:25.044Z,25.20
2018-05-21T10:24:28.273Z,25.30
2018-05-21T10:26:30.704Z,25.30
2018-05-21T10:28:33.927Z,25.40
2018-05-21T10:30:36.381Z,25.30
2018-05-21T10:32:38.861Z,25.30
2018-05-21T10:34:41.292Z,25.30
2018-05-21T10:36:44.493Z,25.40
2018-05-21T10:38:47.681Z,25.50
2018-05-21T10:40:50.118Z,25.50
2018-05-21T10:42:52.644Z,25.50
2018-05-21T10:44:55.072Z,25.60
2018-05-21T10:47:00.520Z,25.60
2018-05-21T10:49:03.753Z,25.60
2018-05-21T10:51:06.204Z,25.60
2018-05-21T10:53:08.688Z,25.60
2018-05-21T10:55:11.117Z,25.70
2018-05-21T10:57:15.824Z,25.60
2018-05-21T10:59:18.253Z,25.60
2018-05-21T11:01:20.692Z,25.60
2018-05-21T11:03:23.188Z,25.60
2018-05-21T11:05:25.652Z,25.60
2018-05-21T11:07:28.129Z,25.60
2018-05-21T11:09:30.599Z,25.70
2018-05-21T11:11:33.025Z,25.80
2018-05-21T11:13:36.272Z,25.80
2018-05-21T11:15:38.708Z,25.80
2018-05-21T11:17:41.197Z,25.80
2018-05-21T11:19:43.632Z,25.90
2018-05-21T11:21:46.858Z,25.80
2018-05-21T11:23:49.414Z,25.80
2018-05-21T11:25:51.832Z,25.80
2018-05-21T11:27:54.352Z,25.80
2018-05-21T11:29:56.858Z,25.80
2018-05-21T11:31:59.327Z,25.90
2018-05-21T11:34:01.709Z,26.00
2018-05-21T11:36:04.258Z,26.00
2018-05-21T11:38:06.720Z,26.00
2018-05-21T11:40:09.150Z,26.10
2018-05-21T11:42:12.374Z,26.10
2018-05-21T11:44:14.800Z,26.10
2018-05-21T11:46:18.045Z,26.10
2018-05-21T11:48:20.501Z,26.00
2018-05-21T11:50:22.932Z,26.10
2018-05-21T11:52:26.173Z,26.00
2018-05-21T11:54:28.588Z,26.00
2018-05-21T11:56:31.791Z,26.10
2018-05-21T11:58:34.994Z,26.10
2018-05-21T12:00:37.474Z,26.00
2018-05-21T12:02:39.981Z,26.00
2018-05-21T12:04:42.417Z,26.10
2018-05-21T12:06:44.848Z,26.20
2018-05-21T12:08:48.040Z,26.20
2018-05-21T12:10:51.266Z,26.20
2018-05-21T12:12:53.701Z,26.20
2018-05-21T12:14:56.893Z,26.30
2018-05-21T12:17:00.085Z,26.30
2018-05-21T12:19:02.529Z,26.30
2018-05-21T12:21:05.732Z,26.40
2018-05-21T12:23:08.920Z,26.40
2018-05-21T12:25:11.357Z,26.40
2018-05-21T12:27:13.789Z,26.40
2018-05-21T12:29:16.252Z,26.40
2018-05-21T12:31:18.693Z,26.50
2018-05-21T12:33:21.909Z,26.40
2018-05-21T12:35:24.345Z,26.30
2018-05-21T12:37:27.542Z,26.40
2018-05-21T12:39:30.772Z,26.40
2018-05-21T12:41:33.230Z,26.40
2018-05-21T12:43:35.662Z,26.50
2018-05-21T12:45:38.867Z,26.40
2018-05-21T12:47:41.288Z,26.40
2018-05-21T12:49:43.716Z,26.40
2018-05-21T12:51:46.192Z,26.40
2018-05-21T12:53:48.669Z,26.50
2018-05-21T12:55:51.096Z,26.50
2018-05-21T12:57:54.327Z,26.60
2018-05-21T12:59:56.793Z,26.50
2018-05-21T13:01:59.260Z,26.60
2018-05-21T13:04:01.741Z,26.60
2018-05-21T13:06:04.164Z,26.60
2018-05-21T13:08:07.361Z,26.60
2018-05-21T13:10:09.849Z,26.50
2018-05-21T13:12:12.279Z,26.60
2018-05-21T13:14:15.517Z,26.90
2018-05-21T13:16:17.990Z,26.90
2018-05-21T13:18:20.428Z,26.90
2018-05-21T13:20:22.852Z,26.90
2018-05-21T13:22:25.405Z,26.90
2018-05-21T13:24:27.845Z,26.90
2018-05-21T13:26:30.268Z,26.90
2018-05-21T13:28:32.809Z,26.80
2018-05-21T13:30:35.276Z,26.80
2018-05-21T13:32:37.761Z,26.90
2018-05-21T13:34:40.255Z,26.90
2018-05-21T13:36:42.692Z,26.90
2018-05-21T13:38:45.165Z,26.90
2018-05-21T13:40:47.588Z,26.90
2018-05-21T13:42:50.812Z,26.80
2018-05-21T13:44:53.288Z,26.80
2018-05-21T13:46:55.730Z,26.90
2018-05-21T13:48:58.166Z,27.00
2018-05-21T13:51:00.601Z,27.10
2018-05-21T13:53:03.834Z,27.10
2018-05-21T13:55:06.258Z,27.20
2018-05-21T13:57:08.697Z,27.20
2018-05-21T13:59:11.306Z,27.10
2018-05-21T14:01:13.729Z,27.10
2018-05-21T14:03:16.921Z,27.00
2018-05-21T14:05:20.110Z,27.00
2018-05-21T14:07:23.302Z,27.00
2018-05-21T14:09:25.733Z,26.90
2018-05-21T14:11:28.161Z,27.00
2018-05-21T14:13:30.648Z,27.00
2018-05-21T14:15:33.097Z,27.00
2018-05-21T14:17:35.576Z,27.10
2018-05-21T14:19:38.009Z,27.10
2018-05-21T14:21:41.220Z,27.00
2018-05-21T14:23:43.690Z,27.00
2018-05-21T14:25:47.584Z,27.10
2018-05-21T14:27:50.776Z,27.10
2018-05-21T14:29:53.266Z,27.10
2018-05-21T14:31:55.744Z,27.20
2018-05-21T14:33:58.187Z,27.20
2018-05-21T14:36:00.606Z,27.10
2018-05-21T14:38:03.141Z,27.10
2018-05-21T14:40:05.630Z,27.10
2018-05-21T14:42:08.756Z,27.20
2018-05-21T14:44:11.956Z,27.20
2018-05-21T14:46:15.196Z,27.10
2018-05-21T14:48:17.677Z,27.10
2018-05-21T14:50:20.075Z,27.10
2018-05-21T14:52:23.269Z,27.20
2018-05-21T14:54:27.344Z,27.10
2018-05-21T14:56:29.880Z,27.10
2018-05-21T14:58:32.311Z,27.10
2018-05-21T15:00:35.510Z,27.10
2018-05-21T15:02:38.724Z,27.20
2018-05-21T15:04:41.150Z,27.10
2018-05-21T15:06:43.664Z,27.20
2018-05-21T15:08:46.136Z,27.20
2018-05-21T15:10:48.616Z,27.20
2018-05-21T15:12:51.053Z,27.20
2018-05-21T15:14:54.248Z,27.20
2018-05-21T15:16:56.736Z,27.20
2018-05-21T15:18:59.172Z,27.20
2018-05-21T15:21:02.393Z,27.20
2018-05-21T15:23:04.833Z,27.20
2018-05-21T15:25:08.049Z,27.10
2018-05-21T15:27:10.524Z,27.10
2018-05-21T15:29:12.992Z,27.10
2018-05-21T15:31:15.446Z,27.10
2018-05-21T15:33:17.937Z,27.10
2018-05-21T15:35:20.370Z,27.10
2018-05-21T15:37:23.595Z,27.20
2018-05-21T15:39:26.940Z,27.20
2018-05-21T15:41:30.189Z,27.20
2018-05-21T15:43:32.640Z,27.20
2018-05-21T15:45:35.074Z,27.20
2018-05-21T15:47:38.302Z,27.10
2018-05-21T15:49:40.733Z,27.10
2018-05-21T15:51:43.954Z,27.10
2018-05-21T15:53:46.416Z,27.10
2018-05-21T15:55:48.840Z,27.10
2018-05-21T15:57:52.084Z,27.00
2018-05-21T15:59:54.512Z,27.00
2018-05-21T16:01:57.745Z,27.00
2018-05-21T16:04:00.168Z,27.00
2018-05-21T16:06:03.396Z,27.00
2018-05-21T16:08:05.824Z,27.00
2018-05-21T16:10:09.033Z,26.90
2018-05-21T16:12:11.534Z,26.90
2018-05-21T16:14:13.969Z,26.90
2018-05-21T16:16:16.400Z,26.90
2018-05-21T16:18:18.916Z,26.90
2018-05-21T16:20:22.146Z,26.90
2018-05-21T16:22:24.587Z,26.90
2018-05-21T16:24:27.037Z,26.90
2018-05-21T16:26:29.459Z,26.90
2018-05-21T16:28:32.726Z,26.90
2018-05-21T16:30:35.149Z,26.80
2018-05-21T16:32:38.385Z,26.90
2018-05-21T16:34:40.844Z,26.80
2018-05-21T16:36:43.316Z,26.90
2018-05-21T16:38:45.782Z,26.90
2018-05-21T16:40:48.238Z,26.90
2018-05-21T16:42:50.673Z,26.90
2018-05-21T16:44:53.872Z,26.70
2018-05-21T16:46:57.113Z,26.70
2018-05-21T16:49:02.578Z,26.70
2018-05-21T16:51:05.009Z,26.70
2018-05-21T16:53:07.472Z,26.70
2018-05-21T16:55:09.959Z,26.70
2018-05-21T16:57:12.417Z,26.70
2018-05-21T16:59:15.165Z,26.60
2018-05-21T17:01:18.357Z,26.60
2018-05-21T17:03:21.585Z,26.60
2018-05-21T17:05:24.241Z,26.60
2018-05-21T17:07:26.717Z,26.50
2018-05-21T17:09:29.157Z,26.40
2018-05-21T17:11:32.356Z,26.40
2018-05-21T17:13:34.837Z,26.40
2018-05-21T17:15:37.277Z,26.40
2018-05-21T17:17:40.505Z,26.40
2018-05-21T17:19:42.941Z,26.40
2018-05-21T17:21:46.162Z,26.40
2018-05-21T17:23:48.610Z,26.40
2018-05-21T17:25:51.041Z,26.40
2018-05-21T17:27:53.564Z,26.40
2018-05-21T17:29:56.004Z,26.30
2018-05-21T17:31:59.218Z,26.20
2018-05-21T17:34:01.696Z,26.30
2018-05-21T17:36:04.173Z,26.40
2018-05-21T17:38:06.635Z,27.50
2018-05-21T17:40:09.104Z,28.80
2018-05-21T17:42:11.592Z,30.20
2018-05-21T17:44:14.049Z,31.60
2018-05-21T17:46:16.477Z,32.90
2018-05-21T17:48:19.705Z,34.90
2018-05-21T17:50:22.136Z,34.80
2018-05-21T17:52:25.365Z,35.60
2018-05-21T17:54:27.855Z,35.60
2018-05-21T17:56:30.307Z,35.70
2018-05-21T17:58:32.712Z,35.10
2018-05-21T18:00:35.236Z,33.60
2018-05-21T18:02:37.672Z,32.10
2018-05-21T18:04:40.902Z,31.80
2018-05-21T18:06:43.377Z,31.80
2018-05-21T18:08:45.898Z,33.10
2018-05-21T18:10:48.313Z,34.20
2018-05-21T18:12:50.784Z,34.90
2018-05-21T18:14:53.217Z,34.30
2018-05-21T18:16:56.400Z,31.80
2018-05-21T18:18:59.588Z,32.40
2018-05-21T18:21:02.833Z,33.20
2018-05-21T18:23:05.265Z,33.20
2018-05-21T18:25:07.705Z,33.50
2018-05-21T18:27:10.142Z,33.90
2018-05-21T18:29:12.588Z,34.20
2018-05-21T18:31:15.076Z,34.10
2018-05-21T18:33:17.499Z,33.80
2018-05-21T18:35:19.944Z,33.50
2018-05-21T18:37:22.373Z,33.20
2018-05-21T18:39:24.933Z,32.90
2018-05-21T18:41:27.357Z,32.80
2018-05-21T18:43:30.596Z,31.60
2018-05-21T18:45:33.050Z,31.60
2018-05-21T18:47:35.497Z,30.20
2018-05-21T18:49:38.724Z,28.10
2018-05-21T18:51:41.167Z,28.10
2018-05-21T18:53:44.367Z,26.70
2018-05-21T18:55:46.857Z,26.60
2018-05-21T18:57:49.324Z,26.20
2018-05-21T18:59:51.760Z,25.60
2018-05-21T19:01:55.070Z,25.00
2018-05-21T19:03:57.552Z,25.00
2018-05-21T19:06:00.012Z,24.80
2018-05-21T19:08:03.199Z,24.40
2018-05-21T19:10:05.633Z,24.40
2018-05-21T19:12:08.059Z,24.30
2018-05-21T19:14:10.484Z,24.10
2018-05-21T19:16:13.687Z,23.80
2018-05-21T19:18:16.120Z,23.80
2018-05-21T19:20:18.549Z,23.70
2018-05-21T19:22:20.981Z,23.60
2018-05-21T19:24:24.180Z,23.30
2018-05-21T19:26:26.686Z,23.30
2018-05-21T19:28:30.248Z,23.00
2018-05-21T19:30:32.740Z,23.00
2018-05-21T19:32:35.180Z,23.00
2018-05-21T19:34:38.409Z,22.70
2018-05-21T19:36:40.868Z,22.70
2018-05-21T19:38:43.303Z,22.70
2018-05-21T19:40:46.524Z,22.40
2018-05-21T19:42:48.949Z,22.50
2018-05-21T19:44:52.180Z,22.30
2018-05-21T19:46:54.624Z,22.20
2018-05-21T19:48:57.812Z,22.10
2018-05-21T19:51:01.033Z,22.10
2018-05-21T19:53:03.461Z,22.10
2018-05-21T19:55:06.705Z,22.00
2018-05-21T19:57:09.256Z,21.90
2018-05-21T19:59:11.677Z,21.90
2018-05-21T20:01:14.108Z,21.80
2018-05-21T20:03:16.676Z,21.80
2018-05-21T20:05:19.097Z,21.70
2018-05-21T20:07:22.395Z,21.60
2018-05-21T20:09:24.737Z,21.60
2018-05-21T20:11:27.164Z,21.60
2018-05-21T20:13:29.592Z,21.60
2018-05-21T20:15:32.788Z,21.50
2018-05-21T20:17:35.989Z,21.40
2018-05-21T20:19:38.420Z,21.40
2018-05-21T20:21:40.876Z,21.40
2018-05-21T20:23:43.320Z,21.30
2018-05-21T20:25:45.790Z,21.30
2018-05-21T20:27:48.217Z,21.30
2018-05-21T20:29:51.418Z,21.20
2018-05-21T20:31:53.850Z,21.20
2018-05-21T20:33:56.276Z,21.10
2018-05-21T20:35:58.769Z,21.10
2018-05-21T20:38:01.220Z,21.10
2018-05-21T20:40:03.644Z,21.00
2018-05-21T20:42:06.876Z,21.00
2018-05-21T20:44:09.308Z,20.90
2018-05-21T20:46:12.501Z,20.90
2018-05-21T20:48:15.700Z,20.90
2018-05-21T20:50:18.196Z,20.80
2018-05-21T20:52:20.650Z,20.80
2018-05-21T20:54:23.136Z,20.80
2018-05-21T20:56:25.601Z,20.80
2018-05-21T20:58:28.033Z,20.70
2018-05-21T21:00:31.244Z,20.70
2018-05-21T21:02:34.445Z,20.60
2018-05-21T21:04:36.900Z,20.60
2018-05-21T21:06:39.337Z,20.60
2018-05-21T21:08:41.861Z,20.60
2018-05-21T21:10:44.436Z,20.60
2018-05-21T21:12:46.797Z,20.50
2018-05-21T21:14:49.247Z,20.50
2018-05-21T21:16:52.457Z,20.50
2018-05-21T21:18:54.895Z,20.40
2018-05-21T21:20:58.220Z,20.40
2018-05-21T21:23:00.657Z,20.40
2018-05-21T21:25:03.091Z,20.40
2018-05-21T21:27:05.519Z,20.30
2018-05-21T21:29:07.995Z,20.30
2018-05-21T21:31:10.425Z,20.30
2018-05-21T21:33:13.622Z,20.20
2018-05-21T21:35:16.847Z,20.20
2018-05-21T21:37:19.275Z,20.20
2018-05-21T21:39:22.474Z,20.20
2018-05-21T21:41:24.960Z,20.10
2018-05-21T21:43:27.398Z,20.10
2018-05-21T21:45:30.624Z,20.10
2018-05-21T21:47:33.079Z,20.10
2018-05-21T21:49:35.501Z,20.10
2018-05-21T21:51:38.037Z,20.00
2018-05-21T21:53:40.473Z,20.00
2018-05-21T21:55:43.693Z,19.90
2018-05-21T21:57:46.124Z,19.90
2018-05-21T21:59:49.319Z,19.90
2018-05-21T22:01:52.540Z,19.90
2018-05-21T22:03:55.009Z,19.90
2018-05-21T22:05:57.432Z,19.90
2018-05-21T22:08:00.643Z,19.90
2018-05-21T22:10:03.894Z,19.80
2018-05-21T22:12:06.339Z,19.80
2018-05-21T22:14:08.780Z,19.80
2018-05-21T22:16:11.200Z,19.80
2018-05-21T22:18:13.727Z,19.80
2018-05-21T22:20:16.147Z,19.80
2018-05-21T22:22:18.584Z,19.80
2018-05-21T22:24:21.052Z,19.80
2018-05-21T22:26:23.720Z,19.80
2018-05-21T22:28:26.155Z,19.70
2018-05-21T22:30:29.346Z,19.70
2018-05-21T22:32:31.772Z,19.70
2018-05-21T22:34:34.316Z,19.70
2018-05-21T22:36:36.741Z,19.70
2018-05-21T22:38:39.937Z,19.60
2018-05-21T22:40:43.152Z,19.60
2018-05-21T22:42:45.585Z,19.60
2018-05-21T22:44:48.785Z,19.50
2018-05-21T22:46:51.983Z,19.50
2018-05-21T22:48:54.583Z,19.50
2018-05-21T22:50:56.995Z,19.50
2018-05-21T22:52:59.429Z,19.50
2018-05-21T22:55:01.865Z,19.50
2018-05-21T22:57:04.291Z,19.50
2018-05-21T22:59:06.826Z,19.40
2018-05-21T23:01:10.114Z,19.40
2018-05-21T23:03:12.583Z,19.40
2018-05-21T23:05:15.006Z,19.40
2018-05-21T23:07:18.236Z,19.30
2018-05-21T23:09:20.668Z,19.30
2018-05-21T23:11:23.900Z,19.20
2018-05-21T23:13:26.373Z,19.20
2018-05-21T23:15:28.811Z,19.20
2018-05-21T23:17:32.019Z,19.10
2018-05-21T23:19:34.443Z,19.10
2018-05-21T23:21:36.961Z,19.10
2018-05-21T23:23:39.392Z,19.00
2018-05-21T23:25:42.620Z,19.00
2018-05-21T23:27:45.072Z,18.90
2018-05-21T23:29:47.500Z,18.90
2018-05-21T23:31:51.476Z,18.80
2018-05-21T23:33:54.063Z,18.80
2018-05-21T23:35:56.521Z,18.80
2018-05-21T23:37:58.996Z,18.80
2018-05-21T23:40:01.457Z,18.80
2018-05-21T23:42:03.893Z,18.70
2018-05-21T23:44:06.394Z,18.70
2018-05-21T23:46:08.843Z,18.70
2018-05-21T23:48:12.036Z,18.70
2018-05-21T23:50:14.512Z,18.70
2018-05-21T23:52:16.932Z,18.70
2018-05-21T23:54:19.463Z,18.70
2018-05-21T23:56:21.897Z,18.70
2018-05-21T23:58:25.101Z,18.70
